sensor_id;sensor_type;location;lat;lon;timestamp;temperature;humidity
31113;DHT22;17763;48.730;9.136;2022-11-20T00:01:25;6.80;99.90
31113;DHT22;17763;48.730;9.136;2022-11-20T00:03:52;6.80;99.90
31113;DHT22;17763;48.730;9.136;2022-11-20T00:06:19;6.80;99.90
31113;DHT22;17763;48.730;9.136;2022-11-20T00:08:51;6.70;99.90
31113;DHT22;17763;48.730;9.136;2022-11-20T00:11:22;6.60;99.90
31113;DHT22;17763;48.730;9.136;2022-11-20T00:13:51;6.60;99.90
31113;DHT22;17763;48.730;9.136;2022-11-20T00:16:19;6.50;99.90
31113;DHT22;17763;48.730;9.136;2022-11-20T00:18:46;6.40;99.90
31113;DHT22;17763;48.730;9.136;2022-11-20T00:23:46;6.40;99.90
31113;DHT22;17763;48.730;9.136;2022-11-20T00:26:14;6.40;99.90
31113;DHT22;17763;48.730;9.136;2022-11-20T00:28:41;6.40;99.90
31113;DHT22;17763;48.730;9.136;2022-11-20T00:31:14;6.40;99.90
31113;DHT22;17763;48.730;9.136;2022-11-20T00:33:41;6.30;99.90
31113;DHT22;17763;48.730;9.136;2022-11-20T00:36:14;6.30;99.90
31113;DHT22;17763;48.730;9.136;2022-11-20T00:38:40;6.30;99.90
31113;DHT22;17763;48.730;9.136;2022-11-20T00:41:09;6.40;99.90
31113;DHT22;17763;48.730;9.136;2022-11-20T00:43:35;6.40;99.90
31113;DHT22;17763;48.730;9.136;2022-11-20T00:46:04;6.40;99.90
31113;DHT22;17763;48.730;9.136;2022-11-20T00:48:30;6.40;99.90
31113;DHT22;17763;48.730;9.136;2022-11-20T00:50:57;6.30;99.90
31113;DHT22;17763;48.730;9.136;2022-11-20T00:53:23;6.30;99.90
31113;DHT22;17763;48.730;9.136;2022-11-20T00:55:56;6.30;99.90
31113;DHT22;17763;48.730;9.136;2022-11-20T00:58:23;6.30;99.90
31113;DHT22;17763;48.730;9.136;2022-11-20T01:00:49;6.30;99.90
31113;DHT22;17763;48.730;9.136;2022-11-20T01:03:18;6.30;99.90
31113;DHT22;17763;48.730;9.136;2022-11-20T01:05:44;6.30;99.90
31113;DHT22;17763;48.730;9.136;2022-11-20T01:08:09;6.20;99.90
31113;DHT22;17763;48.730;9.136;2022-11-20T01:10:36;6.20;99.90
31113;DHT22;17763;48.730;9.136;2022-11-20T01:13:02;6.20;99.90
31113;DHT22;17763;48.730;9.136;2022-11-20T01:15:46;6.10;99.90
31113;DHT22;17763;48.730;9.136;2022-11-20T01:18:12;6.10;99.90
31113;DHT22;17763;48.730;9.136;2022-11-20T01:20:37;6.00;99.90
31113;DHT22;17763;48.730;9.136;2022-11-20T01:23:03;6.00;99.90
31113;DHT22;17763;48.730;9.136;2022-11-20T01:25:29;5.90;99.90
31113;DHT22;17763;48.730;9.136;2022-11-20T01:27:55;5.90;99.90
31113;DHT22;17763;48.730;9.136;2022-11-20T01:30:21;5.80;99.90
31113;DHT22;17763;48.730;9.136;2022-11-20T01:32:47;5.80;99.90
31113;DHT22;17763;48.730;9.136;2022-11-20T01:35:13;5.90;99.90
31113;DHT22;17763;48.730;9.136;2022-11-20T01:37:38;5.90;99.90
31113;DHT22;17763;48.730;9.136;2022-11-20T01:40:05;5.90;99.90
31113;DHT22;17763;48.730;9.136;2022-11-20T01:42:31;5.90;99.90
31113;DHT22;17763;48.730;9.136;2022-11-20T01:48:10;6.00;99.90
31113;DHT22;17763;48.730;9.136;2022-11-20T01:50:36;6.00;99.90
31113;DHT22;17763;48.730;9.136;2022-11-20T01:53:09;6.00;99.90
31113;DHT22;17763;48.730;9.136;2022-11-20T01:55:43;6.10;99.90
31113;DHT22;17763;48.730;9.136;2022-11-20T01:58:13;6.00;99.90
31113;DHT22;17763;48.730;9.136;2022-11-20T02:00:40;6.00;99.90
31113;DHT22;17763;48.730;9.136;2022-11-20T02:03:09;6.00;99.90
31113;DHT22;17763;48.730;9.136;2022-11-20T02:06:03;6.00;99.90
31113;DHT22;17763;48.730;9.136;2022-11-20T02:08:26;6.00;99.90
31113;DHT22;17763;48.730;9.136;2022-11-20T02:10:52;6.00;99.90
31113;DHT22;17763;48.730;9.136;2022-11-20T02:13:17;6.00;99.90
31113;DHT22;17763;48.730;9.136;2022-11-20T02:16:03;6.00;99.90
31113;DHT22;17763;48.730;9.136;2022-11-20T02:18:34;5.90;99.90
31113;DHT22;17763;48.730;9.136;2022-11-20T02:24:21;5.90;99.90
31113;DHT22;17763;48.730;9.136;2022-11-20T02:29:26;6.00;99.90
31113;DHT22;17763;48.730;9.136;2022-11-20T02:31:55;5.90;99.90
31113;DHT22;17763;48.730;9.136;2022-11-20T02:34:24;5.90;99.90
31113;DHT22;17763;48.730;9.136;2022-11-20T02:36:52;5.90;99.90
31113;DHT22;17763;48.730;9.136;2022-11-20T02:39:19;5.90;99.90
31113;DHT22;17763;48.730;9.136;2022-11-20T02:41:47;5.90;99.90
31113;DHT22;17763;48.730;9.136;2022-11-20T02:44:13;5.90;99.90
31113;DHT22;17763;48.730;9.136;2022-11-20T02:46:41;5.90;99.90
31113;DHT22;17763;48.730;9.136;2022-11-20T02:49:07;5.80;99.90
31113;DHT22;17763;48.730;9.136;2022-11-20T02:51:33;5.80;99.90
31113;DHT22;17763;48.730;9.136;2022-11-20T02:54:01;5.80;99.90
31113;DHT22;17763;48.730;9.136;2022-11-20T02:56:27;5.70;99.90
31113;DHT22;17763;48.730;9.136;2022-11-20T02:58:53;5.70;99.90
31113;DHT22;17763;48.730;9.136;2022-11-20T03:01:21;5.70;99.90
31113;DHT22;17763;48.730;9.136;2022-11-20T03:03:46;5.80;99.90
31113;DHT22;17763;48.730;9.136;2022-11-20T03:06:14;5.80;99.90
31113;DHT22;17763;48.730;9.136;2022-11-20T03:08:41;5.80;99.90
31113;DHT22;17763;48.730;9.136;2022-11-20T03:11:07;5.80;99.90
31113;DHT22;17763;48.730;9.136;2022-11-20T03:13:33;5.90;99.90
31113;DHT22;17763;48.730;9.136;2022-11-20T03:16:06;5.90;99.90
31113;DHT22;17763;48.730;9.136;2022-11-20T03:18:33;5.90;99.90
31113;DHT22;17763;48.730;9.136;2022-11-20T03:20:59;5.90;99.90
31113;DHT22;17763;48.730;9.136;2022-11-20T03:23:26;5.90;99.90
31113;DHT22;17763;48.730;9.136;2022-11-20T03:25:54;5.90;99.90
31113;DHT22;17763;48.730;9.136;2022-11-20T03:28:19;5.90;99.90
31113;DHT22;17763;48.730;9.136;2022-11-20T03:30:45;5.90;99.90
31113;DHT22;17763;48.730;9.136;2022-11-20T03:33:11;5.90;99.90
31113;DHT22;17763;48.730;9.136;2022-11-20T03:35:37;5.90;99.90
31113;DHT22;17763;48.730;9.136;2022-11-20T03:38:03;5.90;99.90
31113;DHT22;17763;48.730;9.136;2022-11-20T03:40:28;5.90;99.90
31113;DHT22;17763;48.730;9.136;2022-11-20T03:42:54;5.80;99.90
31113;DHT22;17763;48.730;9.136;2022-11-20T03:45:22;5.80;99.90
31113;DHT22;17763;48.730;9.136;2022-11-20T03:47:53;5.80;99.90
31113;DHT22;17763;48.730;9.136;2022-11-20T03:50:18;5.80;99.90
31113;DHT22;17763;48.730;9.136;2022-11-20T03:52:44;5.80;99.90
31113;DHT22;17763;48.730;9.136;2022-11-20T03:55:10;5.80;99.90
31113;DHT22;17763;48.730;9.136;2022-11-20T03:57:36;5.80;99.90
31113;DHT22;17763;48.730;9.136;2022-11-20T04:00:03;5.80;99.90
31113;DHT22;17763;48.730;9.136;2022-11-20T04:02:31;5.80;99.90
31113;DHT22;17763;48.730;9.136;2022-11-20T04:04:57;5.80;99.90
31113;DHT22;17763;48.730;9.136;2022-11-20T04:07:25;5.80;99.90
31113;DHT22;17763;48.730;9.136;2022-11-20T04:09:51;5.70;99.90
31113;DHT22;17763;48.730;9.136;2022-11-20T04:12:17;5.70;99.90
31113;DHT22;17763;48.730;9.136;2022-11-20T04:14:45;5.70;99.90
31113;DHT22;17763;48.730;9.136;2022-11-20T04:17:11;5.70;99.90
31113;DHT22;17763;48.730;9.136;2022-11-20T04:19:37;5.80;99.90
31113;DHT22;17763;48.730;9.136;2022-11-20T04:22:02;5.80;99.90
31113;DHT22;17763;48.730;9.136;2022-11-20T04:24:28;5.80;99.90
31113;DHT22;17763;48.730;9.136;2022-11-20T04:26:54;5.80;99.90
31113;DHT22;17763;48.730;9.136;2022-11-20T04:29:20;5.80;99.90
31113;DHT22;17763;48.730;9.136;2022-11-20T04:31:46;5.80;99.90
31113;DHT22;17763;48.730;9.136;2022-11-20T04:34:11;5.80;99.90
31113;DHT22;17763;48.730;9.136;2022-11-20T04:36:38;5.80;99.90
31113;DHT22;17763;48.730;9.136;2022-11-20T04:39:05;5.70;99.90
31113;DHT22;17763;48.730;9.136;2022-11-20T04:41:34;5.70;99.90
31113;DHT22;17763;48.730;9.136;2022-11-20T04:44:04;5.70;99.90
31113;DHT22;17763;48.730;9.136;2022-11-20T04:46:35;5.70;99.90
31113;DHT22;17763;48.730;9.136;2022-11-20T04:49:01;5.60;99.90
31113;DHT22;17763;48.730;9.136;2022-11-20T04:51:27;5.60;99.90
31113;DHT22;17763;48.730;9.136;2022-11-20T04:53:53;5.60;99.90
31113;DHT22;17763;48.730;9.136;2022-11-20T04:56:19;5.60;99.90
31113;DHT22;17763;48.730;9.136;2022-11-20T04:58:48;5.50;99.90
31113;DHT22;17763;48.730;9.136;2022-11-20T05:01:16;5.50;99.90
31113;DHT22;17763;48.730;9.136;2022-11-20T05:03:43;5.50;99.90
31113;DHT22;17763;48.730;9.136;2022-11-20T05:06:12;5.50;99.90
31113;DHT22;17763;48.730;9.136;2022-11-20T05:08:38;5.60;99.90
31113;DHT22;17763;48.730;9.136;2022-11-20T05:11:06;5.60;99.90
31113;DHT22;17763;48.730;9.136;2022-11-20T05:13:35;5.60;99.90
31113;DHT22;17763;48.730;9.136;2022-11-20T05:16:06;5.60;99.90
31113;DHT22;17763;48.730;9.136;2022-11-20T05:18:33;5.60;99.90
31113;DHT22;17763;48.730;9.136;2022-11-20T05:20:59;5.60;99.90
31113;DHT22;17763;48.730;9.136;2022-11-20T05:23:25;5.70;99.90
31113;DHT22;17763;48.730;9.136;2022-11-20T05:25:53;5.70;99.90
31113;DHT22;17763;48.730;9.136;2022-11-20T05:28:24;5.70;99.90
31113;DHT22;17763;48.730;9.136;2022-11-20T05:30:50;5.70;99.90
31113;DHT22;17763;48.730;9.136;2022-11-20T05:33:17;5.70;99.90
31113;DHT22;17763;48.730;9.136;2022-11-20T05:35:43;5.70;99.90
31113;DHT22;17763;48.730;9.136;2022-11-20T05:38:09;5.80;99.90
31113;DHT22;17763;48.730;9.136;2022-11-20T05:40:35;5.80;99.90
31113;DHT22;17763;48.730;9.136;2022-11-20T05:43:03;5.90;99.90
31113;DHT22;17763;48.730;9.136;2022-11-20T05:45:29;5.90;99.90
31113;DHT22;17763;48.730;9.136;2022-11-20T05:48:00;5.90;99.90
31113;DHT22;17763;48.730;9.136;2022-11-20T05:50:27;6.00;99.90
31113;DHT22;17763;48.730;9.136;2022-11-20T05:52:58;6.00;99.90
31113;DHT22;17763;48.730;9.136;2022-11-20T05:55:24;6.10;99.90
31113;DHT22;17763;48.730;9.136;2022-11-20T05:57:53;6.10;99.90
31113;DHT22;17763;48.730;9.136;2022-11-20T06:00:20;6.10;99.90
31113;DHT22;17763;48.730;9.136;2022-11-20T06:02:46;6.20;99.90
31113;DHT22;17763;48.730;9.136;2022-11-20T06:05:16;6.20;99.90
31113;DHT22;17763;48.730;9.136;2022-11-20T06:07:42;6.20;99.90
31113;DHT22;17763;48.730;9.136;2022-11-20T06:10:08;6.20;99.90
31113;DHT22;17763;48.730;9.136;2022-11-20T06:12:34;6.20;99.90
31113;DHT22;17763;48.730;9.136;2022-11-20T06:15:05;6.30;99.90
31113;DHT22;17763;48.730;9.136;2022-11-20T06:17:31;6.20;99.90
31113;DHT22;17763;48.730;9.136;2022-11-20T06:19:57;6.20;99.90
31113;DHT22;17763;48.730;9.136;2022-11-20T06:22:22;6.20;99.90
31113;DHT22;17763;48.730;9.136;2022-11-20T06:24:48;6.10;99.90
31113;DHT22;17763;48.730;9.136;2022-11-20T06:27:14;6.10;99.90
31113;DHT22;17763;48.730;9.136;2022-11-20T06:29:40;6.10;99.90
31113;DHT22;17763;48.730;9.136;2022-11-20T06:32:05;6.10;99.90
31113;DHT22;17763;48.730;9.136;2022-11-20T06:34:31;6.10;99.90
31113;DHT22;17763;48.730;9.136;2022-11-20T06:36:57;6.00;99.90
31113;DHT22;17763;48.730;9.136;2022-11-20T06:39:23;6.00;99.90
31113;DHT22;17763;48.730;9.136;2022-11-20T06:41:51;6.00;99.90
31113;DHT22;17763;48.730;9.136;2022-11-20T06:44:20;6.00;99.90
31113;DHT22;17763;48.730;9.136;2022-11-20T06:46:46;6.00;99.90
31113;DHT22;17763;48.730;9.136;2022-11-20T06:49:11;6.00;99.90
31113;DHT22;17763;48.730;9.136;2022-11-20T06:51:37;6.00;99.90
31113;DHT22;17763;48.730;9.136;2022-11-20T06:54:03;6.00;99.90
31113;DHT22;17763;48.730;9.136;2022-11-20T06:56:29;6.10;99.90
31113;DHT22;17763;48.730;9.136;2022-11-20T06:58:54;6.10;99.90
31113;DHT22;17763;48.730;9.136;2022-11-20T07:01:22;6.10;99.90
31113;DHT22;17763;48.730;9.136;2022-11-20T07:03:53;6.10;99.90
31113;DHT22;17763;48.730;9.136;2022-11-20T07:06:19;6.10;99.90
31113;DHT22;17763;48.730;9.136;2022-11-20T07:08:45;6.10;99.90
31113;DHT22;17763;48.730;9.136;2022-11-20T07:11:12;6.00;99.90
31113;DHT22;17763;48.730;9.136;2022-11-20T07:13:38;6.00;99.90
31113;DHT22;17763;48.730;9.136;2022-11-20T07:16:06;6.00;99.90
31113;DHT22;17763;48.730;9.136;2022-11-20T07:18:37;5.90;99.90
31113;DHT22;17763;48.730;9.136;2022-11-20T07:21:07;5.90;99.90
31113;DHT22;17763;48.730;9.136;2022-11-20T07:23:33;5.90;99.90
31113;DHT22;17763;48.730;9.136;2022-11-20T07:26:08;5.90;99.90
31113;DHT22;17763;48.730;9.136;2022-11-20T07:28:35;5.90;99.90
31113;DHT22;17763;48.730;9.136;2022-11-20T07:31:01;5.90;99.90
31113;DHT22;17763;48.730;9.136;2022-11-20T07:33:30;5.90;99.90
31113;DHT22;17763;48.730;9.136;2022-11-20T07:36:01;5.90;99.90
31113;DHT22;17763;48.730;9.136;2022-11-20T07:38:27;5.90;99.90
31113;DHT22;17763;48.730;9.136;2022-11-20T07:40:57;6.00;99.90
31113;DHT22;17763;48.730;9.136;2022-11-20T07:43:29;6.00;99.90
31113;DHT22;17763;48.730;9.136;2022-11-20T07:46:00;6.00;99.90
31113;DHT22;17763;48.730;9.136;2022-11-20T07:48:26;6.00;99.90
31113;DHT22;17763;48.730;9.136;2022-11-20T07:50:55;6.00;99.90
31113;DHT22;17763;48.730;9.136;2022-11-20T07:53:21;6.00;99.90
31113;DHT22;17763;48.730;9.136;2022-11-20T07:55:48;6.10;99.90
31113;DHT22;17763;48.730;9.136;2022-11-20T07:58:18;6.10;99.90
31113;DHT22;17763;48.730;9.136;2022-11-20T08:00:44;6.10;99.90
31113;DHT22;17763;48.730;9.136;2022-11-20T08:03:10;6.10;99.90
31113;DHT22;17763;48.730;9.136;2022-11-20T08:05:36;6.20;99.90
31113;DHT22;17763;48.730;9.136;2022-11-20T08:08:05;6.20;99.90
31113;DHT22;17763;48.730;9.136;2022-11-20T08:10:32;6.20;99.90
31113;DHT22;17763;48.730;9.136;2022-11-20T08:12:57;6.20;99.90
31113;DHT22;17763;48.730;9.136;2022-11-20T08:15:50;6.20;99.90
31113;DHT22;17763;48.730;9.136;2022-11-20T08:18:17;6.20;99.90
31113;DHT22;17763;48.730;9.136;2022-11-20T08:20:45;6.20;99.90
31113;DHT22;17763;48.730;9.136;2022-11-20T08:23:11;6.20;99.90
31113;DHT22;17763;48.730;9.136;2022-11-20T08:25:39;6.20;99.90
31113;DHT22;17763;48.730;9.136;2022-11-20T08:28:09;6.20;99.90
31113;DHT22;17763;48.730;9.136;2022-11-20T08:30:38;6.20;99.90
31113;DHT22;17763;48.730;9.136;2022-11-20T08:33:07;6.20;99.90
31113;DHT22;17763;48.730;9.136;2022-11-20T08:35:35;6.20;99.90
31113;DHT22;17763;48.730;9.136;2022-11-20T08:38:02;6.20;99.90
31113;DHT22;17763;48.730;9.136;2022-11-20T08:40:28;6.20;99.90
31113;DHT22;17763;48.730;9.136;2022-11-20T08:42:54;6.20;99.90
31113;DHT22;17763;48.730;9.136;2022-11-20T08:45:20;6.20;99.90
31113;DHT22;17763;48.730;9.136;2022-11-20T08:47:46;6.30;99.90
31113;DHT22;17763;48.730;9.136;2022-11-20T08:50:14;6.30;99.90
31113;DHT22;17763;48.730;9.136;2022-11-20T08:52:43;6.40;99.90
31113;DHT22;17763;48.730;9.136;2022-11-20T08:55:12;6.40;99.90
31113;DHT22;17763;48.730;9.136;2022-11-20T08:57:41;6.40;99.90
31113;DHT22;17763;48.730;9.136;2022-11-20T09:00:10;6.40;99.90
31113;DHT22;17763;48.730;9.136;2022-11-20T09:02:36;6.40;99.90
31113;DHT22;17763;48.730;9.136;2022-11-20T09:05:02;6.40;99.90
31113;DHT22;17763;48.730;9.136;2022-11-20T09:07:30;6.40;99.90
31113;DHT22;17763;48.730;9.136;2022-11-20T09:09:56;6.50;99.90
31113;DHT22;17763;48.730;9.136;2022-11-20T09:12:24;6.50;99.90
31113;DHT22;17763;48.730;9.136;2022-11-20T09:14:50;6.50;99.90
31113;DHT22;17763;48.730;9.136;2022-11-20T09:17:15;6.50;99.90
31113;DHT22;17763;48.730;9.136;2022-11-20T09:19:45;6.50;99.90
31113;DHT22;17763;48.730;9.136;2022-11-20T09:22:14;6.50;99.90
31113;DHT22;17763;48.730;9.136;2022-11-20T09:24:39;6.50;99.90
31113;DHT22;17763;48.730;9.136;2022-11-20T09:27:05;6.50;99.90
31113;DHT22;17763;48.730;9.136;2022-11-20T09:29:33;6.50;99.90
31113;DHT22;17763;48.730;9.136;2022-11-20T09:31:59;6.50;99.90
31113;DHT22;17763;48.730;9.136;2022-11-20T09:34:27;6.50;99.90
31113;DHT22;17763;48.730;9.136;2022-11-20T09:36:55;6.50;99.90
31113;DHT22;17763;48.730;9.136;2022-11-20T09:39:23;6.50;99.90
31113;DHT22;17763;48.730;9.136;2022-11-20T09:44:55;6.50;99.90
31113;DHT22;17763;48.730;9.136;2022-11-20T09:55:28;6.40;99.90
31113;DHT22;17763;48.730;9.136;2022-11-20T09:57:54;6.50;99.90
31113;DHT22;17763;48.730;9.136;2022-11-20T10:00:23;6.50;99.90
31113;DHT22;17763;48.730;9.136;2022-11-20T10:03:03;6.50;99.90
31113;DHT22;17763;48.730;9.136;2022-11-20T10:05:52;6.60;99.90
31113;DHT22;17763;48.730;9.136;2022-11-20T10:08:22;6.60;99.90
31113;DHT22;17763;48.730;9.136;2022-11-20T10:30:22;6.60;99.90
31113;DHT22;17763;48.730;9.136;2022-11-20T10:32:53;6.50;99.90
31113;DHT22;17763;48.730;9.136;2022-11-20T10:35:40;6.50;99.90
31113;DHT22;17763;48.730;9.136;2022-11-20T10:41:04;6.50;99.90
31113;DHT22;17763;48.730;9.136;2022-11-20T10:44:01;6.50;99.90
31113;DHT22;17763;48.730;9.136;2022-11-20T10:46:40;6.50;99.90
31113;DHT22;17763;48.730;9.136;2022-11-20T10:49:16;6.50;99.90
31113;DHT22;17763;48.730;9.136;2022-11-20T10:52:20;6.50;99.90
31113;DHT22;17763;48.730;9.136;2022-11-20T10:54:56;6.40;99.90
31113;DHT22;17763;48.730;9.136;2022-11-20T11:00:13;6.40;99.90
31113;DHT22;17763;48.730;9.136;2022-11-20T11:02:52;6.40;99.90
31113;DHT22;17763;48.730;9.136;2022-11-20T11:08:04;6.40;99.90
31113;DHT22;17763;48.730;9.136;2022-11-20T11:10:43;6.40;99.90
31113;DHT22;17763;48.730;9.136;2022-11-20T11:13:24;6.50;99.90
31113;DHT22;17763;48.730;9.136;2022-11-20T11:15:51;6.50;99.90
31113;DHT22;17763;48.730;9.136;2022-11-20T11:18:28;6.50;99.90
31113;DHT22;17763;48.730;9.136;2022-11-20T11:20:56;6.50;99.90
31113;DHT22;17763;48.730;9.136;2022-11-20T11:23:37;6.50;99.90
31113;DHT22;17763;48.730;9.136;2022-11-20T11:26:06;6.60;99.90
31113;DHT22;17763;48.730;9.136;2022-11-20T11:28:56;6.60;99.90
31113;DHT22;17763;48.730;9.136;2022-11-20T11:31:25;6.60;99.90
31113;DHT22;17763;48.730;9.136;2022-11-20T11:33:51;6.60;99.90
31113;DHT22;17763;48.730;9.136;2022-11-20T11:36:20;6.60;99.90
31113;DHT22;17763;48.730;9.136;2022-11-20T11:38:51;6.70;99.90
31113;DHT22;17763;48.730;9.136;2022-11-20T11:41:23;6.70;99.90
31113;DHT22;17763;48.730;9.136;2022-11-20T11:43:53;6.70;99.90
31113;DHT22;17763;48.730;9.136;2022-11-20T11:46:43;6.80;99.90
31113;DHT22;17763;48.730;9.136;2022-11-20T11:51:47;6.90;99.90
31113;DHT22;17763;48.730;9.136;2022-11-20T12:02:31;7.20;99.90
31113;DHT22;17763;48.730;9.136;2022-11-20T12:07:45;7.30;99.90
31113;DHT22;17763;48.730;9.136;2022-11-20T12:15:50;7.50;99.90
31113;DHT22;17763;48.730;9.136;2022-11-20T12:18:18;7.60;99.90
31113;DHT22;17763;48.730;9.136;2022-11-20T12:38:20;7.60;99.90
31113;DHT22;17763;48.730;9.136;2022-11-20T12:41:17;7.60;99.90
31113;DHT22;17763;48.730;9.136;2022-11-20T12:52:28;7.60;99.90
31113;DHT22;17763;48.730;9.136;2022-11-20T13:00:24;7.60;99.90
31113;DHT22;17763;48.730;9.136;2022-11-20T13:08:25;7.60;99.90
31113;DHT22;17763;48.730;9.136;2022-11-20T13:16:06;7.70;99.90
31113;DHT22;17763;48.730;9.136;2022-11-20T13:18:43;7.80;99.90
31113;DHT22;17763;48.730;9.136;2022-11-20T13:21:19;7.80;99.90
31113;DHT22;17763;48.730;9.136;2022-11-20T13:23:46;7.80;99.90
31113;DHT22;17763;48.730;9.136;2022-11-20T13:26:22;7.80;99.90
31113;DHT22;17763;48.730;9.136;2022-11-20T13:29:02;7.80;99.90
31113;DHT22;17763;48.730;9.136;2022-11-20T13:31:33;7.80;99.90
31113;DHT22;17763;48.730;9.136;2022-11-20T13:34:03;7.70;99.90
31113;DHT22;17763;48.730;9.136;2022-11-20T13:36:32;7.80;99.90
31113;DHT22;17763;48.730;9.136;2022-11-20T13:39:00;7.80;99.90
31113;DHT22;17763;48.730;9.136;2022-11-20T13:44:23;7.80;99.90
31113;DHT22;17763;48.730;9.136;2022-11-20T13:46:50;7.70;99.90
31113;DHT22;17763;48.730;9.136;2022-11-20T13:52:03;7.80;99.90
31113;DHT22;17763;48.730;9.136;2022-11-20T13:59:57;7.80;99.90
31113;DHT22;17763;48.730;9.136;2022-11-20T14:02:27;7.80;99.90
31113;DHT22;17763;48.730;9.136;2022-11-20T14:05:02;7.80;99.90
31113;DHT22;17763;48.730;9.136;2022-11-20T14:07:35;7.70;99.90
31113;DHT22;17763;48.730;9.136;2022-11-20T14:10:03;7.70;99.90
31113;DHT22;17763;48.730;9.136;2022-11-20T14:12:33;7.70;99.90
31113;DHT22;17763;48.730;9.136;2022-11-20T14:14:59;7.70;99.90
31113;DHT22;17763;48.730;9.136;2022-11-20T14:19:58;7.70;99.90
31113;DHT22;17763;48.730;9.136;2022-11-20T14:22:28;7.70;99.90
31113;DHT22;17763;48.730;9.136;2022-11-20T14:25:19;7.70;99.90
31113;DHT22;17763;48.730;9.136;2022-11-20T14:27:58;7.60;99.90
31113;DHT22;17763;48.730;9.136;2022-11-20T14:30:28;7.60;99.90
31113;DHT22;17763;48.730;9.136;2022-11-20T14:33:02;7.50;99.90
31113;DHT22;17763;48.730;9.136;2022-11-20T14:35:35;7.40;99.90
31113;DHT22;17763;48.730;9.136;2022-11-20T14:38:02;7.40;99.90
31113;DHT22;17763;48.730;9.136;2022-11-20T14:40:32;7.40;99.90
31113;DHT22;17763;48.730;9.136;2022-11-20T14:43:00;7.40;99.90
31113;DHT22;17763;48.730;9.136;2022-11-20T14:45:28;7.40;99.90
31113;DHT22;17763;48.730;9.136;2022-11-20T14:47:56;7.40;99.90
31113;DHT22;17763;48.730;9.136;2022-11-20T14:50:29;7.40;99.90
31113;DHT22;17763;48.730;9.136;2022-11-20T14:52:58;7.50;99.90
31113;DHT22;17763;48.730;9.136;2022-11-20T14:55:36;7.50;99.90
31113;DHT22;17763;48.730;9.136;2022-11-20T14:58:05;7.60;99.90
31113;DHT22;17763;48.730;9.136;2022-11-20T15:00:34;7.60;99.90
31113;DHT22;17763;48.730;9.136;2022-11-20T15:03:00;7.70;99.90
31113;DHT22;17763;48.730;9.136;2022-11-20T15:05:46;7.70;99.90
31113;DHT22;17763;48.730;9.136;2022-11-20T15:08:13;7.80;99.90
31113;DHT22;17763;48.730;9.136;2022-11-20T15:10:45;7.80;99.90
31113;DHT22;17763;48.730;9.136;2022-11-20T15:13:32;7.80;99.90
31113;DHT22;17763;48.730;9.136;2022-11-20T15:16:02;7.80;99.90
31113;DHT22;17763;48.730;9.136;2022-11-20T15:18:31;7.80;99.90
31113;DHT22;17763;48.730;9.136;2022-11-20T15:21:02;7.80;99.90
31113;DHT22;17763;48.730;9.136;2022-11-20T15:23:29;7.80;99.90
31113;DHT22;17763;48.730;9.136;2022-11-20T15:25:55;7.70;99.90
31113;DHT22;17763;48.730;9.136;2022-11-20T15:28:33;7.70;99.90
31113;DHT22;17763;48.730;9.136;2022-11-20T15:31:02;7.70;99.90
31113;DHT22;17763;48.730;9.136;2022-11-20T15:33:29;7.70;99.90
31113;DHT22;17763;48.730;9.136;2022-11-20T15:35:59;7.60;99.90
31113;DHT22;17763;48.730;9.136;2022-11-20T15:38:25;7.60;99.90
31113;DHT22;17763;48.730;9.136;2022-11-20T15:40:51;7.60;99.90
31113;DHT22;17763;48.730;9.136;2022-11-20T15:43:17;7.70;99.90
31113;DHT22;17763;48.730;9.136;2022-11-20T15:45:45;7.70;99.90
31113;DHT22;17763;48.730;9.136;2022-11-20T15:48:15;7.60;99.90
31113;DHT22;17763;48.730;9.136;2022-11-20T15:53:17;7.60;99.90
31113;DHT22;17763;48.730;9.136;2022-11-20T15:55:50;7.60;99.90
31113;DHT22;17763;48.730;9.136;2022-11-20T15:58:18;7.60;99.90
31113;DHT22;17763;48.730;9.136;2022-11-20T16:00:44;7.60;99.90
31113;DHT22;17763;48.730;9.136;2022-11-20T16:03:14;7.60;99.90
31113;DHT22;17763;48.730;9.136;2022-11-20T16:05:40;7.60;99.90
31113;DHT22;17763;48.730;9.136;2022-11-20T16:08:09;7.60;99.90
31113;DHT22;17763;48.730;9.136;2022-11-20T16:10:35;7.60;99.90
31113;DHT22;17763;48.730;9.136;2022-11-20T16:13:01;7.60;99.90
31113;DHT22;17763;48.730;9.136;2022-11-20T16:15:55;7.60;99.90
31113;DHT22;17763;48.730;9.136;2022-11-20T16:18:27;7.50;99.90
31113;DHT22;17763;48.730;9.136;2022-11-20T16:20:54;7.50;99.90
31113;DHT22;17763;48.730;9.136;2022-11-20T16:23:20;7.50;99.90
31113;DHT22;17763;48.730;9.136;2022-11-20T16:25:47;7.50;99.90
31113;DHT22;17763;48.730;9.136;2022-11-20T16:28:13;7.40;99.90
31113;DHT22;17763;48.730;9.136;2022-11-20T16:30:39;7.40;99.90
31113;DHT22;17763;48.730;9.136;2022-11-20T16:33:09;7.40;99.90
31113;DHT22;17763;48.730;9.136;2022-11-20T16:35:37;7.30;99.90
31113;DHT22;17763;48.730;9.136;2022-11-20T16:38:03;7.40;99.90
31113;DHT22;17763;48.730;9.136;2022-11-20T16:40:31;7.40;99.90
31113;DHT22;17763;48.730;9.136;2022-11-20T16:43:12;7.40;99.90
31113;DHT22;17763;48.730;9.136;2022-11-20T16:45:45;7.40;99.90
31113;DHT22;17763;48.730;9.136;2022-11-20T16:48:15;7.30;99.90
31113;DHT22;17763;48.730;9.136;2022-11-20T16:50:52;7.30;99.90
31113;DHT22;17763;48.730;9.136;2022-11-20T16:53:21;7.30;99.90
31113;DHT22;17763;48.730;9.136;2022-11-20T16:55:49;7.30;99.90
31113;DHT22;17763;48.730;9.136;2022-11-20T16:58:17;7.30;99.90
31113;DHT22;17763;48.730;9.136;2022-11-20T17:00:45;7.30;99.90
31113;DHT22;17763;48.730;9.136;2022-11-20T17:03:11;7.20;99.90
31113;DHT22;17763;48.730;9.136;2022-11-20T17:05:41;7.20;99.90
31113;DHT22;17763;48.730;9.136;2022-11-20T17:08:07;7.20;99.90
31113;DHT22;17763;48.730;9.136;2022-11-20T17:10:32;7.20;99.90
31113;DHT22;17763;48.730;9.136;2022-11-20T17:12:58;7.20;99.90
31113;DHT22;17763;48.730;9.136;2022-11-20T17:15:26;7.20;99.90
31113;DHT22;17763;48.730;9.136;2022-11-20T17:17:54;7.30;99.90
31113;DHT22;17763;48.730;9.136;2022-11-20T17:20:20;7.20;99.90
31113;DHT22;17763;48.730;9.136;2022-11-20T17:22:45;7.20;99.90
31113;DHT22;17763;48.730;9.136;2022-11-20T17:25:13;7.20;99.90
31113;DHT22;17763;48.730;9.136;2022-11-20T17:27:39;7.20;99.90
31113;DHT22;17763;48.730;9.136;2022-11-20T17:30:05;7.20;99.90
31113;DHT22;17763;48.730;9.136;2022-11-20T17:32:31;7.20;99.90
31113;DHT22;17763;48.730;9.136;2022-11-20T17:34:56;7.20;99.90
31113;DHT22;17763;48.730;9.136;2022-11-20T17:37:24;7.20;99.90
31113;DHT22;17763;48.730;9.136;2022-11-20T17:39:50;7.20;99.90
31113;DHT22;17763;48.730;9.136;2022-11-20T17:42:16;7.10;99.90
31113;DHT22;17763;48.730;9.136;2022-11-20T17:45:01;7.20;99.90
31113;DHT22;17763;48.730;9.136;2022-11-20T17:47:27;7.20;99.90
31113;DHT22;17763;48.730;9.136;2022-11-20T17:49:52;7.20;99.90
31113;DHT22;17763;48.730;9.136;2022-11-20T17:52:20;7.20;99.90
31113;DHT22;17763;48.730;9.136;2022-11-20T17:54:46;7.20;99.90
31113;DHT22;17763;48.730;9.136;2022-11-20T17:57:15;7.20;99.90
31113;DHT22;17763;48.730;9.136;2022-11-20T17:59:59;7.30;99.90
31113;DHT22;17763;48.730;9.136;2022-11-20T18:02:24;7.30;99.90
31113;DHT22;17763;48.730;9.136;2022-11-20T18:04:52;7.30;99.90